Time;durP1;ratioP1;P1;durP2;ratioP2;P2;SDS_P1;SDS_P2;PMS_P1;PMS_P2;Temp;Humidity;BMP_temperature;BMP_pressure;BME280_temperature;BME280_humidity;BME280_pressure;Samples;Min_cycle;Max_cycle;Signal;HPM_P1;HPM_P2
2024/04/23 00:00:17;;;;;;;;;;;;;;;;;;5563410;25;19927;-74
2024/04/23 00:02:43;;;;;;;;;;;;;;;;;;5565860;25;19939;-74
2024/04/23 00:05:09;;;;;;;;;;;;;;;;;;5565861;25;19994;-75
2024/04/23 00:07:35;;;;;;;;;;;;;;;;;;5565304;25;19927;-74
2024/04/23 00:10:01;;;;;;;;;;;;;;;;;;5565618;25;19971;-74
2024/04/23 00:12:27;;;;;;;;;;;;;;;;;;5563862;25;19930;-72
2024/04/23 00:14:53;;;;;;;;;;;;;;;;;;5565076;25;19927;-72
2024/04/23 00:17:19;;;;;;;;;;;;;;;;;;5565454;25;19934;-72
2024/04/23 00:19:45;;;;;;;;;;;;;;;;;;5565401;25;20320;-72
2024/04/23 00:22:11;;;;;;;;;;;;;;;;;;5564965;25;19938;-72
2024/04/23 00:24:37;;;;;;;;;;;;;;;;;;5565406;25;19926;-72
2024/04/23 00:27:03;;;;;;;;;;;;;;;;;;5565472;25;20255;-72
2024/04/23 00:29:28;;;;;;;;;;;;;;;;;;5564821;25;20031;-72
2024/04/23 00:31:54;;;;;;;;;;;;;;;;;;5565242;25;19927;-72
2024/04/23 00:34:21;;;;;;;;;;;;;;;;;;5565139;25;19934;-73
2024/04/23 00:36:47;;;;;;;;;;;;;;;;;;5565306;25;20261;-73
2024/04/23 00:39:13;;;;;;;;;;;;;;;;;;5565422;25;19934;-74
2024/04/23 00:41:39;;;;;;;;;;;;;;;;;;5562814;25;20363;-73
2024/04/23 00:44:05;;;;;;;;;;;;;;;;;;5564950;25;20245;-73
2024/04/23 00:46:30;;;;;;;;;;;;;;;;;;5564980;25;19935;-72
2024/04/23 00:48:57;;;;;;;;;;;;;;;;;;5564302;25;19927;-72
2024/04/23 00:51:22;;;;;;;;;;;;;;;;;;5565082;25;19959;-75
2024/04/23 00:53:48;;;;;;;;;;;;;;;;;;5564608;25;20328;-75
2024/04/23 00:56:15;;;;;;;;;;;;;;;;;;5564389;25;19927;-73
2024/04/23 00:58:41;;;;;;;;;;;;;;;;;;5564877;25;19927;-72
2024/04/23 01:01:08;;;;;;;;;;;;;;;;;;5564801;25;19933;-73
2024/04/23 01:03:34;;;;;;;;;;;;;;;;;;5564377;25;19927;-72
2024/04/23 01:06:00;;;;;;;;;;;;;;;;;;5562758;25;19937;-73
2024/04/23 01:08:26;;;;;;;;;;;;;;;;;;5564552;25;19933;-72
2024/04/23 01:10:52;;;;;;;;;;;;;;;;;;5562333;25;19927;-72
2024/04/23 01:13:18;;;;;;;;;;;;;;;;;;5562537;25;19927;-73
2024/04/23 01:15:44;;;;;;;;;;;;;;;;;;5562592;25;19953;-72
2024/04/23 01:18:10;;;;;;;;;;;;;;;;;;5563998;25;19976;-73
2024/04/23 01:20:36;;;;;;;;;;;;;;;;;;5564361;25;20363;-74
2024/04/23 01:23:02;;;;;;;;;;;;;;;;;;5564319;25;19995;-72
2024/04/23 01:25:28;;;;;;;;;;;;;;;;;;5563771;25;19936;-72
2024/04/23 01:27:54;;;;;;;;;;;;;;;;;;5562462;25;19927;-74
2024/04/23 01:30:20;;;;;;;;;;;;;;;;;;5564239;25;19995;-73
2024/04/23 01:32:46;;;;;;;;;;;;;;;;;;5563629;25;19941;-72
2024/04/23 01:35:12;;;;;;;;;;;;;;;;;;5562313;25;19934;-74
2024/04/23 01:37:38;;;;;;;;;;;;;;;;;;5563683;25;20356;-73
2024/04/23 01:40:04;;;;;;;;;;;;;;;;;;5562095;25;19927;-73
2024/04/23 01:42:30;;;;;;;;;;;;;;;;;;5564058;25;19934;-72
2024/04/23 01:44:56;;;;;;;;;;;;;;;;;;5563516;25;19927;-72
2024/04/23 01:47:22;;;;;;;;;;;;;;;;;;5563783;25;19927;-72
2024/04/23 01:49:48;;;;;;;;;;;;;;;;;;5563720;25;20251;-72
2024/04/23 01:52:14;;;;;;;;;;;;;;;;;;5561437;25;19934;-73
2024/04/23 01:54:40;;;;;;;;;;;;;;;;;;5563300;25;20435;-73
2024/04/23 01:57:06;;;;;;;;;;;;;;;;;;5563578;25;20320;-73
2024/04/23 01:59:32;;;;;;;;;;;;;;;;;;5562650;25;20060;-72
2024/04/23 02:01:58;;;;;;;;;;;;;;;;;;5564142;25;19934;-72
2024/04/23 02:04:23;;;;;;;;;;;;;;;;;;5567145;25;19926;-72
2024/04/23 02:06:49;;;;;;;;;;;;;;;;;;5564710;25;19975;-72
2024/04/23 02:09:15;;;;;;;;;;;;;;;;;;5565353;25;19927;-72
2024/04/23 02:11:41;;;;;;;;;;;;;;;;;;5566994;25;19934;-72
2024/04/23 02:14:07;;;;;;;;;;;;;;;;;;5564481;25;19927;-72
2024/04/23 02:16:33;;;;;;;;;;;;;;;;;;5565113;25;19934;-73
2024/04/23 02:18:59;;;;;;;;;;;;;;;;;;5566839;25;19926;-72
2024/04/23 02:21:25;;;;;;;;;;;;;;;;;;5566472;25;19938;-72
2024/04/23 02:23:51;;;;;;;;;;;;;;;;;;5566861;25;19938;-72
2024/04/23 02:26:17;;;;;;;;;;;;;;;;;;5566982;25;19927;-75
2024/04/23 02:28:43;;;;;;;;;;;;;;;;;;5566365;25;20368;-72
2024/04/23 02:31:09;;;;;;;;;;;;;;;;;;5566819;25;19927;-72
2024/04/23 02:33:35;;;;;;;;;;;;;;;;;;5564758;25;19933;-72
2024/04/23 02:36:01;;;;;;;;;;;;;;;;;;5566226;25;19927;-72
2024/04/23 02:38:27;;;;;;;;;;;;;;;;;;5566554;25;19934;-72
2024/04/23 02:40:54;;;;;;;;;;;;;;;;;;5564655;25;19995;-72
2024/04/23 02:43:19;;;;;;;;;;;;;;;;;;5566428;25;19927;-72
2024/04/23 02:45:45;;;;;;;;;;;;;;;;;;5566628;25;19927;-72
2024/04/23 02:48:11;;;;;;;;;;;;;;;;;;5564130;25;19967;-72
2024/04/23 02:50:37;;;;;;;;;;;;;;;;;;5566344;25;19927;-72
2024/04/23 02:53:03;;;;;;;;;;;;;;;;;;5566106;25;19927;-72
2024/04/23 02:55:29;;;;;;;;;;;;;;;;;;5566048;25;20359;-72
2024/04/23 02:57:55;;;;;;;;;;;;;;;;;;5566364;25;19934;-72
2024/04/23 03:00:21;;;;;;;;;;;;;;;;;;5566405;25;20262;-72
2024/04/23 03:02:47;;;;;;;;;;;;;;;;;;5565876;25;19926;-72
2024/04/23 03:05:13;;;;;;;;;;;;;;;;;;5566439;25;19934;-72
2024/04/23 03:07:39;;;;;;;;;;;;;;;;;;5564298;25;20327;-72
2024/04/23 03:10:05;;;;;;;;;;;;;;;;;;5563982;25;19931;-72
2024/04/23 03:12:31;;;;;;;;;;;;;;;;;;5566233;25;19933;-71
2024/04/23 03:14:57;;;;;;;;;;;;;;;;;;5566125;25;19926;-71
2024/04/23 03:17:23;;;;;;;;;;;;;;;;;;5563817;25;20363;-72
2024/04/23 03:19:49;;;;;;;;;;;;;;;;;;5564382;25;20274;-72
2024/04/23 03:22:15;;;;;;;;;;;;;;;;;;5564172;25;19931;-72
2024/04/23 03:24:42;;;;;;;;;;;;;;;;;;5563768;25;19939;-72
2024/04/23 03:27:08;;;;;;;;;;;;;;;;;;5565994;25;19927;-72
2024/04/23 03:29:34;;;;;;;;;;;;;;;;;;5565909;25;19994;-72
2024/04/23 03:32:00;;;;;;;;;;;;;;;;;;5563548;25;19934;-72
2024/04/23 03:34:26;;;;;;;;;;;;;;;;;;5565769;25;19927;-72
2024/04/23 03:36:52;;;;;;;;;;;;;;;;;;5563961;25;19953;-72
2024/04/23 03:39:18;;;;;;;;;;;;;;;;;;5565224;25;19930;-72
2024/04/23 03:41:44;;;;;;;;;;;;;;;;;;5563861;25;19975;-72
2024/04/23 03:44:10;;;;;;;;;;;;;;;;;;5565798;25;19927;-72
2024/04/23 03:46:36;;;;;;;;;;;;;;;;;;5565229;25;19930;-72
2024/04/23 03:49:02;;;;;;;;;;;;;;;;;;5565635;25;19995;-72
2024/04/23 03:51:28;;;;;;;;;;;;;;;;;;5565290;25;19934;-72
2024/04/23 03:53:53;;;;;;;;;;;;;;;;;;5563367;25;19927;-72
2024/04/23 03:56:19;;;;;;;;;;;;;;;;;;5565502;25;19935;-73
2024/04/23 03:58:45;;;;;;;;;;;;;;;;;;5565053;25;20377;-72
2024/04/23 04:01:11;;;;;;;;;;;;;;;;;;5565466;25;19975;-72
2024/04/23 04:06:22;;;;;;;;;;;;;;;;;;5564821;25;20255;-72
2024/04/23 04:08:48;;;;;;;;;;;;;;;;;;5565325;25;19927;-72
2024/04/23 04:11:14;;;;;;;;;;;;;;;;;;5563304;25;19927;-72
2024/04/23 04:13:40;;;;;;;;;;;;;;;;;;5564602;25;19971;-72
2024/04/23 04:16:06;;;;;;;;;;;;;;;;;;5563720;25;19951;-72
2024/04/23 04:18:32;;;;;;;;;;;;;;;;;;5564767;25;19999;-72
2024/04/23 04:20:58;;;;;;;;;;;;;;;;;;5564574;25;19935;-72
2024/04/23 04:23:24;;;;;;;;;;;;;;;;;;5564267;25;19939;-72
2024/04/23 04:25:50;;;;;;;;;;;;;;;;;;5563267;25;19937;-73
2024/04/23 04:28:16;;;;;;;;;;;;;;;;;;5562685;25;19930;-72
2024/04/23 04:30:42;;;;;;;;;;;;;;;;;;5563050;25;19934;-73
2024/04/23 04:33:08;;;;;;;;;;;;;;;;;;5562940;25;19930;-73
2024/04/23 04:35:34;;;;;;;;;;;;;;;;;;5560978;25;19995;-73
2024/04/23 04:38:00;;;;;;;;;;;;;;;;;;5563811;25;19934;-73
2024/04/23 04:40:25;;;;;;;;;;;;;;;;;;5564195;25;20371;-73
2024/04/23 04:42:52;;;;;;;;;;;;;;;;;;5562628;25;20276;-73
2024/04/23 04:45:18;;;;;;;;;;;;;;;;;;5562052;25;19927;-74
2024/04/23 04:47:48;;;;;;;;;;;;;;;;;;5564271;25;19927;-73
2024/04/23 04:50:14;;;;;;;;;;;;;;;;;;5564575;25;19938;-74
2024/04/23 04:52:40;;;;;;;;;;;;;;;;;;5561974;25;19927;-74
2024/04/23 04:55:06;;;;;;;;;;;;;;;;;;5564467;25;19994;-74
2024/04/23 04:57:32;;;;;;;;;;;;;;;;;;5564807;25;19927;-74
2024/04/23 04:59:58;;;;;;;;;;;;;;;;;;5562812;25;19935;-73
2024/04/23 05:02:24;;;;;;;;;;;;;;;;;;5563741;25;20374;-73
2024/04/23 05:04:50;;;;;;;;;;;;;;;;;;5563798;25;19938;-73
2024/04/23 05:07:16;;;;;;;;;;;;;;;;;;5586924;25;19935;-72
2024/04/23 05:09:43;;;;;;;;;;;;;;;;;;5565093;25;19927;-73
2024/04/23 05:12:11;;;;;;;;;;;;;;;;;;5595120;25;19927;-72
2024/04/23 05:14:40;;;;;;;;;;;;;;;;;;5599171;25;19926;-69
2024/04/23 05:17:07;;;;;;;;;;;;;;;;;;5564367;25;19934;-69
2024/04/23 05:19:33;;;;;;;;;;;;;;;;;;5565902;25;19930;-70
2024/04/23 05:21:59;;;;;;;;;;;;;;;;;;5567633;25;19930;-72
2024/04/23 05:24:26;;;;;;;;;;;;;;;;;;5600102;25;20363;-72
2024/04/23 05:26:52;;;;;;;;;;;;;;;;;;5600465;25;19926;-73
2024/04/23 05:29:18;;;;;;;;;;;;;;;;;;5601011;25;19933;-71
2024/04/23 05:34:30;;;;;;;;;;;;;;;;;;5599707;25;19929;-75
2024/04/23 05:36:58;;;;;;;;;;;;;;;;;;5569823;25;19973;-74
2024/04/23 05:39:24;;;;;;;;;;;;;;;;;;5603447;25;19977;-72
2024/04/23 05:41:51;;;;;;;;;;;;;;;;;;5604216;25;19938;-72
2024/04/23 05:44:17;;;;;;;;;;;;;;;;;;5602254;25;19993;-72
2024/04/23 05:46:43;;;;;;;;;;;;;;;;;;5570011;25;19934;-73
2024/04/23 05:49:09;;;;;;;;;;;;;;;;;;5603401;25;19968;-72
2024/04/23 05:51:36;;;;;;;;;;;;;;;;;;5602264;25;19992;-75
2024/04/23 05:54:03;;;;;;;;;;;;;;;;;;5600654;25;19938;-73
2024/04/23 05:56:38;;;;;;;;;;;;;;;;;;5603362;25;19926;-73
2024/04/23 05:59:04;;;;;;;;;;;;;;;;;;5569566;25;20255;-84
2024/04/23 06:01:30;;;;;;;;;;;;;;;;;;5570244;25;19926;-80
2024/04/23 06:03:56;;;;;;;;;;;;;;;;;;5569338;25;19926;-76
2024/04/23 06:06:32;;;;;;;;;;;;;;;;;;5602734;25;20026;-73
2024/04/23 06:08:58;;;;;;;;;;;;;;;;;;5569190;25;19931;-72
2024/04/23 06:11:24;;;;;;;;;;;;;;;;;;5588409;25;19993;-73
2024/04/23 06:13:50;;;;;;;;;;;;;;;;;;5597915;25;19934;-73
2024/04/23 06:16:16;;;;;;;;;;;;;;;;;;5566037;25;19933;-74
2024/04/23 06:18:42;;;;;;;;;;;;;;;;;;5587278;25;20319;-73
2024/04/23 06:21:13;;;;;;;;;;;;;;;;;;5564443;25;20311;-75
2024/04/23 06:23:41;;;;;;;;;;;;;;;;;;5594428;25;19955;-73
2024/04/23 06:26:07;;;;;;;;;;;;;;;;;;5588689;25;19926;-74
2024/04/23 06:28:34;;;;;;;;;;;;;;;;;;5601044;25;20274;-73
2024/04/23 06:31:01;;;;;;;;;;;;;;;;;;5566561;25;20327;-73
2024/04/23 06:33:28;;;;;;;;;;;;;;;;;;5586188;25;19939;-70
2024/04/23 06:35:54;;;;;;;;;;;;;;;;;;5576694;25;19930;-75
2024/04/23 06:38:20;;;;;;;;;;;;;;;;;;5561814;25;20023;-73
2024/04/23 06:40:46;;;;;;;;;;;;;;;;;;5532282;25;19927;-73
2024/04/23 06:43:12;;;;;;;;;;;;;;;;;;5564116;25;19927;-72
2024/04/23 06:45:41;;;;;;;;;;;;;;;;;;5559822;25;19927;-74
2024/04/23 06:48:17;;;;;;;;;;;;;;;;;;5601569;25;19928;-73
2024/04/23 06:50:43;;;;;;;;;;;;;;;;;;5602790;25;19926;-76
2024/04/23 06:53:10;;;;;;;;;;;;;;;;;;5565347;25;20439;-74
2024/04/23 06:55:36;;;;;;;;;;;;;;;;;;5564134;25;20246;-74
2024/04/23 06:58:02;;;;;;;;;;;;;;;;;;5598791;25;19926;-74
2024/04/23 07:00:28;;;;;;;;;;;;;;;;;;5562482;25;20315;-73
2024/04/23 07:02:54;;;;;;;;;;;;;;;;;;5594759;25;19937;-72
2024/04/23 07:05:20;;;;;;;;;;;;;;;;;;5599573;25;20358;-72
2024/04/23 07:07:47;;;;;;;;;;;;;;;;;;5568652;25;19926;-74
2024/04/23 07:10:13;;;;;;;;;;;;;;;;;;5567288;25;19933;-74
2024/04/23 07:12:39;;;;;;;;;;;;;;;;;;5564917;25;19926;-75
2024/04/23 07:15:05;;;;;;;;;;;;;;;;;;5588268;25;20011;-76
2024/04/23 07:17:31;;;;;;;;;;;;;;;;;;5600199;25;19927;-75
2024/04/23 07:19:57;;;;;;;;;;;;;;;;;;5567340;25;19933;-73
2024/04/23 07:22:26;;;;;;;;;;;;;;;;;;5599366;25;19997;-71
2024/04/23 07:24:52;;;;;;;;;;;;;;;;;;5566802;25;19926;-72
2024/04/23 07:27:19;;;;;;;;;;;;;;;;;;5589246;25;19993;-72
2024/04/23 07:29:50;;;;;;;;;;;;;;;;;;5568585;25;19933;-71
2024/04/23 07:32:18;;;;;;;;;;;;;;;;;;5599732;25;19933;-72
2024/04/23 07:34:46;;;;;;;;;;;;;;;;;;5601276;25;19926;-72
2024/04/23 07:37:12;;;;;;;;;;;;;;;;;;5598423;25;19926;-72
2024/04/23 07:39:38;;;;;;;;;;;;;;;;;;5601091;25;19926;-71
2024/04/23 07:42:04;;;;;;;;;;;;;;;;;;5601794;25;19933;-73
2024/04/23 07:44:30;;;;;;;;;;;;;;;;;;5568237;25;19926;-73
2024/04/23 07:46:56;;;;;;;;;;;;;;;;;;5599198;25;19934;-72
2024/04/23 07:49:23;;;;;;;;;;;;;;;;;;5582535;25;19958;-69
2024/04/23 07:51:51;;;;;;;;;;;;;;;;;;5581032;25;20003;-69
2024/04/23 07:54:18;;;;;;;;;;;;;;;;;;5579729;25;20379;-70
2024/04/23 07:56:45;;;;;;;;;;;;;;;;;;5538323;25;19941;-71
2024/04/23 07:59:13;;;;;;;;;;;;;;;;;;5551266;25;20001;-72
2024/04/23 08:01:40;;;;;;;;;;;;;;;;;;5597968;25;19958;-71
2024/04/23 08:04:16;;;;;;;;;;;;;;;;;;5594349;25;20267;-70
2024/04/23 08:06:42;;;;;;;;;;;;;;;;;;5601254;25;19933;-76
2024/04/23 08:09:09;;;;;;;;;;;;;;;;;;5600019;25;20373;-73
2024/04/23 08:11:36;;;;;;;;;;;;;;;;;;5599037;25;19938;-74
2024/04/23 08:14:05;;;;;;;;;;;;;;;;;;5544717;25;19933;-74
2024/04/23 08:16:37;;;;;;;;;;;;;;;;;;5595467;25;19974;-73
2024/04/23 08:19:13;;;;;;;;;;;;;;;;;;5583552;25;19963;-71
2024/04/23 08:21:42;;;;;;;;;;;;;;;;;;5530497;25;20262;-71
2024/04/23 08:24:08;;;;;;;;;;;;;;;;;;5562129;25;19939;-72
2024/04/23 08:26:34;;;;;;;;;;;;;;;;;;5563293;25;19998;-73
2024/04/23 08:29:00;;;;;;;;;;;;;;;;;;5563558;25;20323;-70
2024/04/23 08:31:28;;;;;;;;;;;;;;;;;;5529002;25;19931;-71
2024/04/23 08:33:55;;;;;;;;;;;;;;;;;;5530322;25;19926;-74
2024/04/23 08:36:21;;;;;;;;;;;;;;;;;;5563245;25;19938;-71
2024/04/23 08:38:47;;;;;;;;;;;;;;;;;;5529742;25;20355;-71
2024/04/23 08:41:15;;;;;;;;;;;;;;;;;;5562981;25;20368;-71
2024/04/23 08:43:41;;;;;;;;;;;;;;;;;;5525452;25;19996;-73
2024/04/23 08:46:07;;;;;;;;;;;;;;;;;;5563082;25;19939;-75
2024/04/23 08:48:33;;;;;;;;;;;;;;;;;;5530414;25;19927;-73
2024/04/23 08:50:59;;;;;;;;;;;;;;;;;;5562909;25;19927;-75
2024/04/23 08:53:25;;;;;;;;;;;;;;;;;;5530038;25;19999;-74
2024/04/23 08:55:51;;;;;;;;;;;;;;;;;;5563994;25;20288;-74
2024/04/23 08:58:17;;;;;;;;;;;;;;;;;;5563708;25;20319;-74
2024/04/23 09:00:43;;;;;;;;;;;;;;;;;;5530173;25;19938;-76
2024/04/23 09:03:12;;;;;;;;;;;;;;;;;;5564116;25;19934;-73
2024/04/23 09:05:38;;;;;;;;;;;;;;;;;;5531018;25;19927;-75
2024/04/23 09:08:04;;;;;;;;;;;;;;;;;;5563984;25;20627;-76
2024/04/23 09:10:30;;;;;;;;;;;;;;;;;;5566176;25;19927;-75
2024/04/23 09:12:56;;;;;;;;;;;;;;;;;;5567526;25;19927;-75
2024/04/23 09:15:22;;;;;;;;;;;;;;;;;;5572424;25;19955;-75
2024/04/23 09:17:48;;;;;;;;;;;;;;;;;;5571919;25;20370;-76
2024/04/23 09:20:14;;;;;;;;;;;;;;;;;;5571469;25;19938;-75
2024/04/23 09:22:40;;;;;;;;;;;;;;;;;;5603071;25;19934;-75
2024/04/23 09:25:06;;;;;;;;;;;;;;;;;;5571913;25;19934;-75
2024/04/23 09:27:32;;;;;;;;;;;;;;;;;;5602735;25;19933;-74
2024/04/23 09:29:58;;;;;;;;;;;;;;;;;;5601571;25;20697;-71
2024/04/23 09:32:23;;;;;;;;;;;;;;;;;;5541029;25;19934;-74
2024/04/23 09:34:49;;;;;;;;;;;;;;;;;;5565252;25;19943;-74
2024/04/23 09:37:16;;;;;;;;;;;;;;;;;;5535727;25;19989;-75
2024/04/23 09:39:42;;;;;;;;;;;;;;;;;;5604340;25;19959;-76
2024/04/23 09:42:08;;;;;;;;;;;;;;;;;;5604952;25;19934;-75
2024/04/23 09:44:34;;;;;;;;;;;;;;;;;;5571180;25;19926;-75
2024/04/23 09:47:01;;;;;;;;;;;;;;;;;;5605052;25;19926;-74
2024/04/23 09:49:27;;;;;;;;;;;;;;;;;;5605146;25;19958;-73
2024/04/23 09:51:53;;;;;;;;;;;;;;;;;;5569094;25;19937;-73
2024/04/23 09:54:19;;;;;;;;;;;;;;;;;;5601129;25;19926;-74
2024/04/23 09:56:45;;;;;;;;;;;;;;;;;;5568254;25;19938;-74
2024/04/23 09:59:12;;;;;;;;;;;;;;;;;;5567701;25;19933;-73
2024/04/23 10:01:37;;;;;;;;;;;;;;;;;;5601670;25;19926;-74
2024/04/23 10:04:03;;;;;;;;;;;;;;;;;;5601123;25;20279;-73
2024/04/23 10:06:29;;;;;;;;;;;;;;;;;;5601240;25;19938;-73
2024/04/23 10:08:55;;;;;;;;;;;;;;;;;;5601429;25;19926;-74
2024/04/23 10:11:21;;;;;;;;;;;;;;;;;;5599009;25;19942;-74
2024/04/23 10:13:48;;;;;;;;;;;;;;;;;;5598866;25;19926;-74
2024/04/23 10:16:14;;;;;;;;;;;;;;;;;;5600558;25;19952;-74
2024/04/23 10:18:40;;;;;;;;;;;;;;;;;;5600523;25;19926;-74
2024/04/23 10:21:06;;;;;;;;;;;;;;;;;;5567124;25;20316;-73
2024/04/23 10:23:32;;;;;;;;;;;;;;;;;;5600662;25;19978;-73
2024/04/23 10:25:58;;;;;;;;;;;;;;;;;;5602732;25;19934;-73
2024/04/23 10:28:24;;;;;;;;;;;;;;;;;;5604913;25;19938;-73
2024/04/23 10:30:50;;;;;;;;;;;;;;;;;;5571268;25;19937;-73
2024/04/23 10:33:16;;;;;;;;;;;;;;;;;;5604205;25;19926;-74
2024/04/23 10:35:42;;;;;;;;;;;;;;;;;;5604716;25;19997;-74
2024/04/23 10:38:08;;;;;;;;;;;;;;;;;;5604749;25;19927;-74
2024/04/23 10:40:33;;;;;;;;;;;;;;;;;;5570377;25;19937;-74
2024/04/23 10:43:00;;;;;;;;;;;;;;;;;;5571070;25;19926;-74
2024/04/23 10:45:26;;;;;;;;;;;;;;;;;;5570998;25;20387;-74
2024/04/23 10:47:52;;;;;;;;;;;;;;;;;;5604054;25;19942;-74
2024/04/23 10:50:18;;;;;;;;;;;;;;;;;;5570972;25;19927;-74
2024/04/23 10:52:44;;;;;;;;;;;;;;;;;;5604469;25;19927;-74
2024/04/23 10:55:14;;;;;;;;;;;;;;;;;;5570143;25;20442;-74
2024/04/23 10:57:40;;;;;;;;;;;;;;;;;;5604316;25;19926;-74
2024/04/23 11:00:06;;;;;;;;;;;;;;;;;;5604282;25;20374;-73
2024/04/23 11:02:32;;;;;;;;;;;;;;;;;;5603708;25;20263;-74
2024/04/23 11:04:57;;;;;;;;;;;;;;;;;;5570640;25;19997;-74
2024/04/23 11:07:23;;;;;;;;;;;;;;;;;;5603683;25;19926;-74
2024/04/23 11:09:49;;;;;;;;;;;;;;;;;;5604157;25;19934;-74
2024/04/23 11:12:16;;;;;;;;;;;;;;;;;;5604117;25;19993;-73
2024/04/23 11:14:41;;;;;;;;;;;;;;;;;;5603582;25;19927;-75
2024/04/23 11:17:07;;;;;;;;;;;;;;;;;;5604157;25;19937;-75
2024/04/23 11:19:33;;;;;;;;;;;;;;;;;;5570319;25;19950;-74
2024/04/23 11:21:59;;;;;;;;;;;;;;;;;;5569957;25;19989;-75
2024/04/23 11:24:25;;;;;;;;;;;;;;;;;;5570415;25;19934;-74
2024/04/23 11:26:51;;;;;;;;;;;;;;;;;;5570452;25;19926;-74
2024/04/23 11:29:17;;;;;;;;;;;;;;;;;;5603307;25;19926;-74
2024/04/23 11:31:46;;;;;;;;;;;;;;;;;;5603795;25;19974;-74
2024/04/23 11:34:12;;;;;;;;;;;;;;;;;;5568353;25;19994;-74
2024/04/23 11:36:39;;;;;;;;;;;;;;;;;;5603022;25;19934;-75
2024/04/23 11:39:07;;;;;;;;;;;;;;;;;;5603665;25;19937;-76
2024/04/23 11:41:33;;;;;;;;;;;;;;;;;;5603561;25;19930;-75
2024/04/23 11:44:01;;;;;;;;;;;;;;;;;;5603040;25;20019;-75
2024/04/23 11:46:27;;;;;;;;;;;;;;;;;;5603605;25;19926;-75
2024/04/23 11:48:53;;;;;;;;;;;;;;;;;;5603522;25;19926;-75
2024/04/23 11:51:19;;;;;;;;;;;;;;;;;;5603042;25;19993;-75
2024/04/23 11:53:45;;;;;;;;;;;;;;;;;;5603332;25;19937;-76
2024/04/23 11:56:11;;;;;;;;;;;;;;;;;;5603822;25;19926;-75
2024/04/23 11:58:37;;;;;;;;;;;;;;;;;;5603316;25;19932;-75
2024/04/23 12:01:03;;;;;;;;;;;;;;;;;;5603789;25;19930;-75
2024/04/23 12:03:28;;;;;;;;;;;;;;;;;;5570292;25;20383;-75
2024/04/23 12:05:54;;;;;;;;;;;;;;;;;;5569584;25;20235;-75
2024/04/23 12:08:20;;;;;;;;;;;;;;;;;;5603525;25;19998;-75
2024/04/23 12:10:46;;;;;;;;;;;;;;;;;;5603069;25;19927;-76
2024/04/23 12:13:12;;;;;;;;;;;;;;;;;;5603311;25;19997;-76
2024/04/23 12:15:38;;;;;;;;;;;;;;;;;;5603386;25;19927;-75
2024/04/23 12:18:05;;;;;;;;;;;;;;;;;;5569511;25;19926;-75
2024/04/23 12:20:31;;;;;;;;;;;;;;;;;;5569867;25;19926;-75
2024/04/23 12:22:57;;;;;;;;;;;;;;;;;;5603563;25;20374;-74
2024/04/23 12:25:23;;;;;;;;;;;;;;;;;;5569277;25;19926;-75
2024/04/23 12:27:49;;;;;;;;;;;;;;;;;;5603466;25;19933;-74
2024/04/23 12:30:15;;;;;;;;;;;;;;;;;;5569809;25;19927;-74
2024/04/23 12:32:41;;;;;;;;;;;;;;;;;;5602798;25;19933;-75
2024/04/23 12:35:07;;;;;;;;;;;;;;;;;;5602889;25;19931;-75
2024/04/23 12:37:33;;;;;;;;;;;;;;;;;;5603209;25;19933;-76
2024/04/23 12:40:03;;;;;;;;;;;;;;;;;;5602529;25;19926;-75
2024/04/23 12:42:29;;;;;;;;;;;;;;;;;;5569501;25;19926;-75
2024/04/23 12:44:55;;;;;;;;;;;;;;;;;;5602433;25;19926;-74
2024/04/23 12:47:21;;;;;;;;;;;;;;;;;;5569087;25;20337;-75
2024/04/23 12:49:47;;;;;;;;;;;;;;;;;;5602878;25;19934;-74
2024/04/23 12:52:13;;;;;;;;;;;;;;;;;;5602827;25;19994;-75
2024/04/23 12:54:39;;;;;;;;;;;;;;;;;;5601835;25;19934;-76
2024/04/23 12:57:08;;;;;;;;;;;;;;;;;;5601642;25;20205;-75
2024/04/23 12:59:38;;;;;;;;;;;;;;;;;;5602212;25;19930;-74
2024/04/23 13:02:04;;;;;;;;;;;;;;;;;;5601864;25;20057;-74
2024/04/23 13:04:29;;;;;;;;;;;;;;;;;;5568875;25;20367;-74
2024/04/23 13:06:55;;;;;;;;;;;;;;;;;;5601927;25;19930;-73
2024/04/23 13:09:21;;;;;;;;;;;;;;;;;;5568872;25;19994;-74
2024/04/23 13:11:47;;;;;;;;;;;;;;;;;;5602182;25;19927;-74
2024/04/23 13:14:13;;;;;;;;;;;;;;;;;;5568110;25;20776;-75
2024/04/23 13:16:39;;;;;;;;;;;;;;;;;;5602227;25;19926;-75
2024/04/23 13:19:05;;;;;;;;;;;;;;;;;;5602055;25;19926;-75
2024/04/23 13:21:31;;;;;;;;;;;;;;;;;;5601402;25;19941;-74
2024/04/23 13:23:57;;;;;;;;;;;;;;;;;;5601875;25;19933;-74
2024/04/23 13:26:23;;;;;;;;;;;;;;;;;;5601916;25;19927;-74
2024/04/23 13:28:49;;;;;;;;;;;;;;;;;;5601379;25;19927;-73
2024/04/23 13:31:15;;;;;;;;;;;;;;;;;;5568217;25;19933;-74
2024/04/23 13:33:42;;;;;;;;;;;;;;;;;;5602903;25;20363;-73
2024/04/23 13:36:09;;;;;;;;;;;;;;;;;;5567787;25;20347;-73
2024/04/23 13:38:35;;;;;;;;;;;;;;;;;;5601614;25;19934;-75
2024/04/23 13:41:01;;;;;;;;;;;;;;;;;;5601811;25;19927;-74
2024/04/23 13:43:27;;;;;;;;;;;;;;;;;;5601073;25;19994;-73
2024/04/23 13:45:53;;;;;;;;;;;;;;;;;;5567944;25;19927;-73
2024/04/23 13:48:19;;;;;;;;;;;;;;;;;;5567932;25;19926;-74
2024/04/23 13:50:45;;;;;;;;;;;;;;;;;;5600925;25;19994;-74
2024/04/23 13:53:11;;;;;;;;;;;;;;;;;;5601014;25;19942;-74
2024/04/23 13:55:38;;;;;;;;;;;;;;;;;;5601355;25;19926;-74
2024/04/23 13:58:04;;;;;;;;;;;;;;;;;;5603696;25;19971;-75
2024/04/23 14:00:30;;;;;;;;;;;;;;;;;;5605317;25;19934;-74
2024/04/23 14:02:56;;;;;;;;;;;;;;;;;;5605191;25;19938;-74
2024/04/23 14:05:22;;;;;;;;;;;;;;;;;;5604670;25;19926;-74
2024/04/23 14:07:48;;;;;;;;;;;;;;;;;;5605217;25;19934;-74
2024/04/23 14:10:15;;;;;;;;;;;;;;;;;;5604642;25;19926;-75
2024/04/23 14:12:43;;;;;;;;;;;;;;;;;;5605023;25;19927;-74
2024/04/23 14:15:09;;;;;;;;;;;;;;;;;;5604988;25;19935;-74
2024/04/23 14:17:35;;;;;;;;;;;;;;;;;;5604464;25;19999;-73
2024/04/23 14:20:01;;;;;;;;;;;;;;;;;;5604916;25;19939;-74
2024/04/23 14:22:27;;;;;;;;;;;;;;;;;;5604836;25;19933;-73
2024/04/23 14:24:55;;;;;;;;;;;;;;;;;;5604529;25;19993;-73
2024/04/23 14:27:21;;;;;;;;;;;;;;;;;;5604871;25;20354;-74
2024/04/23 14:29:47;;;;;;;;;;;;;;;;;;5571292;25;19927;-73
2024/04/23 14:32:15;;;;;;;;;;;;;;;;;;5604309;25;20371;-72
2024/04/23 14:34:41;;;;;;;;;;;;;;;;;;5604536;25;19926;-73
2024/04/23 14:37:07;;;;;;;;;;;;;;;;;;5604565;25;19926;-73
2024/04/23 14:39:33;;;;;;;;;;;;;;;;;;5570490;25;19928;-73
2024/04/23 14:41:59;;;;;;;;;;;;;;;;;;5604590;25;19939;-73
2024/04/23 14:44:25;;;;;;;;;;;;;;;;;;5604613;25;20359;-73
2024/04/23 14:46:51;;;;;;;;;;;;;;;;;;5604124;25;19938;-73
2024/04/23 14:49:16;;;;;;;;;;;;;;;;;;5604463;25;19934;-73
2024/04/23 14:51:42;;;;;;;;;;;;;;;;;;5604446;25;19937;-73
2024/04/23 14:54:09;;;;;;;;;;;;;;;;;;5603846;25;19975;-74
2024/04/23 14:56:35;;;;;;;;;;;;;;;;;;5604650;25;19934;-73
2024/04/23 14:59:01;;;;;;;;;;;;;;;;;;5604669;25;19927;-73
2024/04/23 15:01:27;;;;;;;;;;;;;;;;;;5604046;25;19993;-73
2024/04/23 15:03:56;;;;;;;;;;;;;;;;;;5604512;25;19931;-74
2024/04/23 15:06:22;;;;;;;;;;;;;;;;;;5603824;25;19933;-72
2024/04/23 15:08:48;;;;;;;;;;;;;;;;;;5603613;25;19926;-72
2024/04/23 15:11:13;;;;;;;;;;;;;;;;;;5603092;25;19975;-72
2024/04/23 15:13:39;;;;;;;;;;;;;;;;;;5603637;25;19933;-73
2024/04/23 15:16:06;;;;;;;;;;;;;;;;;;5604165;25;19926;-73
2024/04/23 15:18:38;;;;;;;;;;;;;;;;;;5603673;25;20292;-73
2024/04/23 15:21:09;;;;;;;;;;;;;;;;;;5604006;25;19927;-73
2024/04/23 15:23:35;;;;;;;;;;;;;;;;;;5604239;25;19933;-72
2024/04/23 15:26:01;;;;;;;;;;;;;;;;;;5604059;25;19927;-72
2024/04/23 15:28:27;;;;;;;;;;;;;;;;;;5570164;25;20347;-72
2024/04/23 15:30:57;;;;;;;;;;;;;;;;;;5599009;25;19933;-72
2024/04/23 15:33:26;;;;;;;;;;;;;;;;;;5601752;25;19993;-72
2024/04/23 15:35:52;;;;;;;;;;;;;;;;;;5603648;25;19930;-72
2024/04/23 15:38:18;;;;;;;;;;;;;;;;;;5603842;25;19997;-73
2024/04/23 15:40:45;;;;;;;;;;;;;;;;;;5570691;25;19933;-72
2024/04/23 15:43:12;;;;;;;;;;;;;;;;;;5603697;25;19994;-72
2024/04/23 15:45:39;;;;;;;;;;;;;;;;;;5570160;25;20339;-72
2024/04/23 15:48:05;;;;;;;;;;;;;;;;;;5570347;25;20335;-74
2024/04/23 15:50:31;;;;;;;;;;;;;;;;;;5603188;25;19933;-74
2024/04/23 15:52:57;;;;;;;;;;;;;;;;;;5603318;25;19981;-74
2024/04/23 15:55:23;;;;;;;;;;;;;;;;;;5603319;25;19927;-74
2024/04/23 15:57:49;;;;;;;;;;;;;;;;;;5602920;25;20275;-74
2024/04/23 16:00:15;;;;;;;;;;;;;;;;;;5569756;25;19926;-74
2024/04/23 16:02:41;;;;;;;;;;;;;;;;;;5603259;25;19997;-72
2024/04/23 16:05:07;;;;;;;;;;;;;;;;;;5602970;25;19926;-73
2024/04/23 16:07:33;;;;;;;;;;;;;;;;;;5603290;25;19934;-74
2024/04/23 16:09:59;;;;;;;;;;;;;;;;;;5602777;25;19933;-74
2024/04/23 16:12:24;;;;;;;;;;;;;;;;;;5603145;25;19926;-74
2024/04/23 16:14:50;;;;;;;;;;;;;;;;;;5602938;25;19931;-73
2024/04/23 16:17:16;;;;;;;;;;;;;;;;;;5602466;25;20104;-74
2024/04/23 16:19:42;;;;;;;;;;;;;;;;;;5601976;25;19962;-74
2024/04/23 16:22:09;;;;;;;;;;;;;;;;;;5569562;25;19994;-74
2024/04/23 16:24:35;;;;;;;;;;;;;;;;;;5602607;25;20016;-74
2024/04/23 16:27:02;;;;;;;;;;;;;;;;;;5602994;25;20390;-73
2024/04/23 16:29:29;;;;;;;;;;;;;;;;;;5602958;25;19962;-73
2024/04/23 16:31:56;;;;;;;;;;;;;;;;;;5568799;25;19926;-74
2024/04/23 16:34:22;;;;;;;;;;;;;;;;;;5602442;25;19926;-74
2024/04/23 16:36:48;;;;;;;;;;;;;;;;;;5602681;25;20266;-73
2024/04/23 16:39:14;;;;;;;;;;;;;;;;;;5602373;25;19926;-75
2024/04/23 16:41:40;;;;;;;;;;;;;;;;;;5602849;25;20263;-75
2024/04/23 16:44:06;;;;;;;;;;;;;;;;;;5602853;25;19934;-74